sensor_id;sensor_type;location;lat;lon;timestamp;pressure;altitude;pressure_sealevel;temperature;humidity
57801;BME280;43627;42.728;23.256;2022-12-07T00:01:32;94983.09;;;4.88;100.00
57801;BME280;43627;42.728;23.256;2022-12-07T00:04:02;94985.38;;;4.90;100.00
57801;BME280;43627;42.728;23.256;2022-12-07T00:06:38;94991.19;;;5.04;100.00
57801;BME280;43627;42.728;23.256;2022-12-07T00:09:07;94978.34;;;4.92;100.00
57801;BME280;43627;42.728;23.256;2022-12-07T00:11:35;94973.78;;;4.89;100.00
57801;BME280;43627;42.728;23.256;2022-12-07T00:14:07;94991.53;;;4.90;100.00
57801;BME280;43627;42.728;23.256;2022-12-07T00:16:34;94986.06;;;4.94;100.00
57801;BME280;43627;42.728;23.256;2022-12-07T00:19:02;94987.56;;;4.95;100.00
57801;BME280;43627;42.728;23.256;2022-12-07T00:21:32;94992.16;;;5.10;100.00
57801;BME280;43627;42.728;23.256;2022-12-07T00:23:59;94981.56;;;5.03;100.00
57801;BME280;43627;42.728;23.256;2022-12-07T00:26:28;94992.53;;;5.12;100.00
57801;BME280;43627;42.728;23.256;2022-12-07T00:28:58;94959.81;;;4.78;100.00
57801;BME280;43627;42.728;23.256;2022-12-07T00:31:28;95001.66;;;5.02;100.00
57801;BME280;43627;42.728;23.256;2022-12-07T00:33:57;94975.91;;;4.81;100.00
57801;BME280;43627;42.728;23.256;2022-12-07T00:36:24;94989.00;;;4.83;100.00
57801;BME280;43627;42.728;23.256;2022-12-07T00:38:54;95008.75;;;4.96;100.00
57801;BME280;43627;42.728;23.256;2022-12-07T00:41:23;95000.88;;;5.02;100.00
57801;BME280;43627;42.728;23.256;2022-12-07T00:43:50;94998.81;;;4.93;100.00
57801;BME280;43627;42.728;23.256;2022-12-07T00:46:19;94988.91;;;5.03;100.00
57801;BME280;43627;42.728;23.256;2022-12-07T00:48:47;94982.06;;;4.98;100.00
57801;BME280;43627;42.728;23.256;2022-12-07T00:51:17;94965.84;;;4.98;100.00
57801;BME280;43627;42.728;23.256;2022-12-07T00:53:44;94992.16;;;5.10;100.00
57801;BME280;43627;42.728;23.256;2022-12-07T00:56:16;94979.78;;;5.13;100.00
57801;BME280;43627;42.728;23.256;2022-12-07T00:58:43;94992.53;;;5.12;100.00
57801;BME280;43627;42.728;23.256;2022-12-07T01:01:10;94991.19;;;5.04;100.00
57801;BME280;43627;42.728;23.256;2022-12-07T01:03:38;94978.50;;;5.01;100.00
57801;BME280;43627;42.728;23.256;2022-12-07T01:06:05;94992.53;;;5.12;100.00
57801;BME280;43627;42.728;23.256;2022-12-07T01:08:33;94975.78;;;5.18;100.00
57801;BME280;43627;42.728;23.256;2022-12-07T01:11:03;94979.56;;;5.20;100.00
57801;BME280;43627;42.728;23.256;2022-12-07T01:13:31;94972.88;;;5.25;100.00
57801;BME280;43627;42.728;23.256;2022-12-07T01:15:59;94977.34;;;5.31;100.00
57801;BME280;43627;42.728;23.256;2022-12-07T01:18:28;94959.88;;;5.20;100.00
57801;BME280;43627;42.728;23.256;2022-12-07T01:21:04;94971.38;;;5.24;100.00
57801;BME280;43627;42.728;23.256;2022-12-07T01:23:32;94972.78;;;5.28;100.00
57801;BME280;43627;42.728;23.256;2022-12-07T01:26:02;94968.28;;;5.38;100.00
57801;BME280;43627;42.728;23.256;2022-12-07T01:28:30;94964.78;;;5.25;100.00
57801;BME280;43627;42.728;23.256;2022-12-07T01:31:05;94958.91;;;5.13;100.00
57801;BME280;43627;42.728;23.256;2022-12-07T01:33:35;94979.00;;;5.12;100.00
57801;BME280;43627;42.728;23.256;2022-12-07T01:36:07;94957.03;;;5.10;100.00
57801;BME280;43627;42.728;23.256;2022-12-07T01:38:36;94958.75;;;5.04;100.00
57801;BME280;43627;42.728;23.256;2022-12-07T01:41:02;94946.19;;;4.98;100.00
57801;BME280;43627;42.728;23.256;2022-12-07T01:43:31;94956.84;;;5.18;100.00
57801;BME280;43627;42.728;23.256;2022-12-07T01:45:58;94965.38;;;5.16;100.00
57801;BME280;43627;42.728;23.256;2022-12-07T01:51:03;94935.69;;;5.00;100.00
57801;BME280;43627;42.728;23.256;2022-12-07T01:53:31;94954.69;;;5.12;100.00
57801;BME280;43627;42.728;23.256;2022-12-07T01:56:02;94955.84;;;5.11;100.00
57801;BME280;43627;42.728;23.256;2022-12-07T01:58:29;94963.13;;;5.14;100.00
57801;BME280;43627;42.728;23.256;2022-12-07T02:00:56;94959.41;;;5.08;100.00
57801;BME280;43627;42.728;23.256;2022-12-07T02:03:35;94955.78;;;5.15;100.00
57801;BME280;43627;42.728;23.256;2022-12-07T02:06:05;94944.97;;;5.15;100.00
57801;BME280;43627;42.728;23.256;2022-12-07T02:08:33;94922.28;;;4.96;100.00
57801;BME280;43627;42.728;23.256;2022-12-07T02:11:04;94936.66;;;4.93;100.00
57801;BME280;43627;42.728;23.256;2022-12-07T02:13:34;94935.38;;;4.98;100.00
57801;BME280;43627;42.728;23.256;2022-12-07T02:22:16;94948.56;;;4.79;100.00
57801;BME280;43627;42.728;23.256;2022-12-07T02:32:39;94928.03;;;4.82;100.00
57801;BME280;43627;42.728;23.256;2022-12-07T02:35:20;94924.69;;;4.78;100.00
57801;BME280;43627;42.728;23.256;2022-12-07T02:38:10;94933.56;;;4.78;100.00
57801;BME280;43627;42.728;23.256;2022-12-07T02:41:00;94930.19;;;4.74;100.00
57801;BME280;43627;42.728;23.256;2022-12-07T02:43:34;94939.88;;;4.72;100.00
57801;BME280;43627;42.728;23.256;2022-12-07T02:46:14;94934.25;;;4.66;100.00
57801;BME280;43627;42.728;23.256;2022-12-07T02:48:43;94934.06;;;4.73;100.00
57801;BME280;43627;42.728;23.256;2022-12-07T02:51:11;94932.91;;;4.74;100.00
57801;BME280;43627;42.728;23.256;2022-12-07T02:53:41;94932.53;;;4.72;100.00
57801;BME280;43627;42.728;23.256;2022-12-07T02:58:54;94926.47;;;4.68;100.00
57801;BME280;43627;42.728;23.256;2022-12-07T03:07:32;94917.09;;;4.73;100.00
57801;BME280;43627;42.728;23.256;2022-12-07T03:15:43;94907.31;;;4.63;100.00
57801;BME280;43627;42.728;23.256;2022-12-07T03:18:16;94908.78;;;4.51;100.00
57801;BME280;43627;42.728;23.256;2022-12-07T03:20:45;94909.84;;;4.53;100.00
57801;BME280;43627;42.728;23.256;2022-12-07T03:23:16;94891.00;;;4.21;100.00
57801;BME280;43627;42.728;23.256;2022-12-07T03:25:48;94910.38;;;4.48;100.00
57801;BME280;43627;42.728;23.256;2022-12-07T03:28:20;94914.34;;;4.60;100.00
57801;BME280;43627;42.728;23.256;2022-12-07T03:31:00;94896.34;;;4.53;100.00
57801;BME280;43627;42.728;23.256;2022-12-07T03:33:36;94924.38;;;4.59;100.00
57801;BME280;43627;42.728;23.256;2022-12-07T03:36:08;94878.31;;;4.34;100.00
57801;BME280;43627;42.728;23.256;2022-12-07T03:38:40;94914.59;;;4.49;100.00
57801;BME280;43627;42.728;23.256;2022-12-07T03:41:18;94921.59;;;4.47;100.00
57801;BME280;43627;42.728;23.256;2022-12-07T03:43:47;94913.25;;;4.41;100.00
57801;BME280;43627;42.728;23.256;2022-12-07T03:55:25;94904.88;;;4.36;100.00
57801;BME280;43627;42.728;23.256;2022-12-07T03:57:56;94920.69;;;4.37;100.00
57801;BME280;43627;42.728;23.256;2022-12-07T04:00:24;94902.19;;;4.36;100.00
57801;BME280;43627;42.728;23.256;2022-12-07T04:02:52;94909.78;;;4.57;100.00
57801;BME280;43627;42.728;23.256;2022-12-07T04:05:19;94889.59;;;4.45;100.00
57801;BME280;43627;42.728;23.256;2022-12-07T04:07:46;94909.69;;;4.44;100.00
57801;BME280;43627;42.728;23.256;2022-12-07T04:10:13;94896.66;;;4.26;100.00
57801;BME280;43627;42.728;23.256;2022-12-07T04:12:40;94904.97;;;4.32;100.00
57801;BME280;43627;42.728;23.256;2022-12-07T04:15:08;94883.47;;;4.12;100.00
57801;BME280;43627;42.728;23.256;2022-12-07T04:17:36;94911.22;;;4.29;100.00
57801;BME280;43627;42.728;23.256;2022-12-07T04:20:03;94909.34;;;4.26;100.00
57801;BME280;43627;42.728;23.256;2022-12-07T04:22:31;94900.59;;;4.22;100.00
57801;BME280;43627;42.728;23.256;2022-12-07T04:24:57;94913.94;;;4.29;100.00
57801;BME280;43627;42.728;23.256;2022-12-07T04:27:24;94915.53;;;4.26;100.00
57801;BME280;43627;42.728;23.256;2022-12-07T04:29:51;94905.56;;;4.23;100.00
57801;BME280;43627;42.728;23.256;2022-12-07T04:32:19;94907.84;;;4.09;100.00
57801;BME280;43627;42.728;23.256;2022-12-07T04:34:46;94911.81;;;4.04;100.00
57801;BME280;43627;42.728;23.256;2022-12-07T04:37:19;94915.44;;;4.14;100.00
57801;BME280;43627;42.728;23.256;2022-12-07T04:39:46;94894.34;;;3.92;100.00
57801;BME280;43627;42.728;23.256;2022-12-07T04:42:13;94903.28;;;4.06;100.00
57801;BME280;43627;42.728;23.256;2022-12-07T04:44:39;94913.81;;;4.16;100.00
57801;BME280;43627;42.728;23.256;2022-12-07T04:47:06;94904.03;;;4.06;100.00
57801;BME280;43627;42.728;23.256;2022-12-07T04:49:33;94905.81;;;3.96;100.00
57801;BME280;43627;42.728;23.256;2022-12-07T04:52:00;94914.31;;;3.95;100.00
57801;BME280;43627;42.728;23.256;2022-12-07T04:54:27;94908.16;;;3.94;100.00
57801;BME280;43627;42.728;23.256;2022-12-07T04:56:54;94916.91;;;3.82;100.00
57801;BME280;43627;42.728;23.256;2022-12-07T04:59:20;94924.09;;;3.89;100.00
57801;BME280;43627;42.728;23.256;2022-12-07T05:01:47;94924.88;;;3.89;100.00
57801;BME280;43627;42.728;23.256;2022-12-07T05:04:14;94918.91;;;3.98;100.00
57801;BME280;43627;42.728;23.256;2022-12-07T05:06:42;94898.91;;;3.79;100.00
57801;BME280;43627;42.728;23.256;2022-12-07T05:09:09;94915.16;;;3.92;100.00
57801;BME280;43627;42.728;23.256;2022-12-07T05:11:36;94895.53;;;3.91;100.00
57801;BME280;43627;42.728;23.256;2022-12-07T05:14:17;94900.00;;;3.98;100.00
57801;BME280;43627;42.728;23.256;2022-12-07T05:16:45;94911.22;;;4.13;100.00
57801;BME280;43627;42.728;23.256;2022-12-07T05:19:13;94932.28;;;4.01;100.00
57801;BME280;43627;42.728;23.256;2022-12-07T05:21:40;94903.78;;;3.84;100.00
57801;BME280;43627;42.728;23.256;2022-12-07T05:24:08;94933.16;;;3.98;100.00
57801;BME280;43627;42.728;23.256;2022-12-07T05:26:36;94917.34;;;3.81;100.00
57801;BME280;43627;42.728;23.256;2022-12-07T05:29:04;94925.97;;;3.92;100.00
57801;BME280;43627;42.728;23.256;2022-12-07T05:31:31;94922.94;;;3.90;100.00
57801;BME280;43627;42.728;23.256;2022-12-07T05:33:58;94892.97;;;3.84;100.00
57801;BME280;43627;42.728;23.256;2022-12-07T05:36:24;94920.22;;;3.90;100.00
57801;BME280;43627;42.728;23.256;2022-12-07T05:38:51;94919.88;;;3.88;100.00
57801;BME280;43627;42.728;23.256;2022-12-07T05:41:19;94911.91;;;4.00;100.00
57801;BME280;43627;42.728;23.256;2022-12-07T05:44:05;94922.69;;;4.17;100.00
57801;BME280;43627;42.728;23.256;2022-12-07T05:46:32;94926.75;;;4.25;100.00
57801;BME280;43627;42.728;23.256;2022-12-07T05:49:00;94899.94;;;4.18;100.00
57801;BME280;43627;42.728;23.256;2022-12-07T05:51:27;94906.50;;;4.33;100.00
57801;BME280;43627;42.728;23.256;2022-12-07T05:53:54;94899.41;;;4.23;100.00
57801;BME280;43627;42.728;23.256;2022-12-07T05:56:24;94895.03;;;4.13;100.00
57801;BME280;43627;42.728;23.256;2022-12-07T05:58:53;94912.31;;;4.32;100.00
57801;BME280;43627;42.728;23.256;2022-12-07T06:01:38;94914.00;;;4.25;100.00
57801;BME280;43627;42.728;23.256;2022-12-07T06:04:05;94871.91;;;3.95;100.00
57801;BME280;43627;42.728;23.256;2022-12-07T06:06:32;94865.47;;;3.57;100.00
57801;BME280;43627;42.728;23.256;2022-12-07T06:09:04;94856.31;;;3.70;100.00
57801;BME280;43627;42.728;23.256;2022-12-07T06:11:31;94889.69;;;3.77;100.00
57801;BME280;43627;42.728;23.256;2022-12-07T06:14:17;94860.84;;;3.57;100.00
57801;BME280;43627;42.728;23.256;2022-12-07T06:16:43;94910.53;;;3.92;100.00
57801;BME280;43627;42.728;23.256;2022-12-07T06:19:10;94912.56;;;4.05;100.00
57801;BME280;43627;42.728;23.256;2022-12-07T06:21:37;94913.41;;;4.01;100.00
57801;BME280;43627;42.728;23.256;2022-12-07T06:24:04;94920.78;;;4.17;100.00
57801;BME280;43627;42.728;23.256;2022-12-07T06:26:31;94916.97;;;4.31;100.00
57801;BME280;43627;42.728;23.256;2022-12-07T06:28:58;94875.19;;;3.87;100.00
57801;BME280;43627;42.728;23.256;2022-12-07T06:31:24;94914.94;;;4.03;100.00
57801;BME280;43627;42.728;23.256;2022-12-07T06:33:59;94934.84;;;4.25;100.00
57801;BME280;43627;42.728;23.256;2022-12-07T06:36:26;94919.31;;;4.13;100.00
57801;BME280;43627;42.728;23.256;2022-12-07T06:38:53;94927.34;;;4.33;100.00
57801;BME280;43627;42.728;23.256;2022-12-07T06:41:21;94898.81;;;4.15;100.00
57801;BME280;43627;42.728;23.256;2022-12-07T06:43:48;94912.91;;;4.39;100.00
57801;BME280;43627;42.728;23.256;2022-12-07T06:46:21;94936.78;;;4.57;100.00
57801;BME280;43627;42.728;23.256;2022-12-07T06:48:49;94944.56;;;4.55;100.00
57801;BME280;43627;42.728;23.256;2022-12-07T06:51:16;94942.25;;;4.53;100.00
57801;BME280;43627;42.728;23.256;2022-12-07T06:53:44;94939.16;;;4.55;100.00
57801;BME280;43627;42.728;23.256;2022-12-07T06:56:10;94935.44;;;4.49;100.00
57801;BME280;43627;42.728;23.256;2022-12-07T06:58:39;94920.25;;;4.39;100.00
57801;BME280;43627;42.728;23.256;2022-12-07T07:01:10;94936.78;;;4.57;100.00
57801;BME280;43627;42.728;23.256;2022-12-07T07:03:38;94932.03;;;4.61;100.00
57801;BME280;43627;42.728;23.256;2022-12-07T07:06:06;94935.19;;;4.59;100.00
57801;BME280;43627;42.728;23.256;2022-12-07T07:08:35;94893.00;;;4.33;100.00
57801;BME280;43627;42.728;23.256;2022-12-07T07:11:02;94920.00;;;4.49;100.00
57801;BME280;43627;42.728;23.256;2022-12-07T07:13:29;94887.69;;;4.46;100.00
57801;BME280;43627;42.728;23.256;2022-12-07T07:15:56;94916.59;;;4.62;100.00
57801;BME280;43627;42.728;23.256;2022-12-07T07:18:23;94858.88;;;4.26;100.00
57801;BME280;43627;42.728;23.256;2022-12-07T07:20:51;94897.91;;;4.38;100.00
57801;BME280;43627;42.728;23.256;2022-12-07T07:23:19;94926.97;;;4.63;100.00
57801;BME280;43627;42.728;23.256;2022-12-07T07:25:47;94846.63;;;4.06;100.00
57801;BME280;43627;42.728;23.256;2022-12-07T07:28:14;94883.28;;;4.52;100.00
57801;BME280;43627;42.728;23.256;2022-12-07T07:30:42;94888.75;;;4.65;100.00
57801;BME280;43627;42.728;23.256;2022-12-07T07:33:10;94933.44;;;4.98;100.00
57801;BME280;43627;42.728;23.256;2022-12-07T07:35:37;94853.16;;;4.53;100.00
57801;BME280;43627;42.728;23.256;2022-12-07T07:38:06;94940.06;;;5.39;100.00
57801;BME280;43627;42.728;23.256;2022-12-07T07:40:33;94943.31;;;5.47;100.00
57801;BME280;43627;42.728;23.256;2022-12-07T07:43:00;94846.50;;;4.87;100.00
57801;BME280;43627;42.728;23.256;2022-12-07T07:45:28;94911.75;;;5.56;100.00
57801;BME280;43627;42.728;23.256;2022-12-07T07:47:55;94897.47;;;5.56;100.00
57801;BME280;43627;42.728;23.256;2022-12-07T07:50:22;94930.06;;;5.65;100.00
57801;BME280;43627;42.728;23.256;2022-12-07T07:52:49;94905.13;;;5.44;100.00
57801;BME280;43627;42.728;23.256;2022-12-07T07:55:16;94945.00;;;5.69;100.00
57801;BME280;43627;42.728;23.256;2022-12-07T07:57:43;94941.44;;;5.60;100.00
57801;BME280;43627;42.728;23.256;2022-12-07T08:00:18;94936.41;;;5.58;100.00
57801;BME280;43627;42.728;23.256;2022-12-07T08:02:45;94894.63;;;5.34;100.00
57801;BME280;43627;42.728;23.256;2022-12-07T08:05:13;94829.25;;;5.10;100.00
57801;BME280;43627;42.728;23.256;2022-12-07T08:07:40;94925.72;;;5.67;100.00
57801;BME280;43627;42.728;23.256;2022-12-07T08:10:11;94876.72;;;5.53;100.00
57801;BME280;43627;42.728;23.256;2022-12-07T08:12:39;94894.69;;;5.59;100.00
57801;BME280;43627;42.728;23.256;2022-12-07T08:15:28;94836.72;;;5.19;100.00
57801;BME280;43627;42.728;23.256;2022-12-07T08:17:55;94826.03;;;5.28;100.00
57801;BME280;43627;42.728;23.256;2022-12-07T08:20:22;94871.50;;;5.58;100.00
57801;BME280;43627;42.728;23.256;2022-12-07T08:22:49;94840.56;;;5.34;100.00
57801;BME280;43627;42.728;23.256;2022-12-07T08:25:16;94833.44;;;5.53;100.00
57801;BME280;43627;42.728;23.256;2022-12-07T08:27:43;94846.53;;;5.80;100.00
57801;BME280;43627;42.728;23.256;2022-12-07T08:30:10;94888.84;;;6.24;100.00
57801;BME280;43627;42.728;23.256;2022-12-07T08:32:37;94941.41;;;6.87;100.00
57801;BME280;43627;42.728;23.256;2022-12-07T08:35:04;94891.16;;;6.73;100.00
57801;BME280;43627;42.728;23.256;2022-12-07T08:37:31;94937.94;;;7.21;100.00
57801;BME280;43627;42.728;23.256;2022-12-07T08:39:58;94935.56;;;7.10;100.00
57801;BME280;43627;42.728;23.256;2022-12-07T08:42:26;94914.00;;;7.07;100.00
57801;BME280;43627;42.728;23.256;2022-12-07T08:44:56;94865.47;;;7.00;100.00
57801;BME280;43627;42.728;23.256;2022-12-07T08:47:28;94895.38;;;7.31;100.00
57801;BME280;43627;42.728;23.256;2022-12-07T08:49:55;94831.38;;;7.11;100.00
57801;BME280;43627;42.728;23.256;2022-12-07T08:52:22;94887.41;;;7.58;100.00
57801;BME280;43627;42.728;23.256;2022-12-07T08:54:50;94846.75;;;7.14;100.00
57801;BME280;43627;42.728;23.256;2022-12-07T08:57:18;94866.25;;;7.22;100.00
57801;BME280;43627;42.728;23.256;2022-12-07T08:59:45;94913.47;;;7.34;100.00
57801;BME280;43627;42.728;23.256;2022-12-07T09:02:12;94824.41;;;6.88;100.00
57801;BME280;43627;42.728;23.256;2022-12-07T09:04:39;94837.66;;;7.08;100.00
57801;BME280;43627;42.728;23.256;2022-12-07T09:07:06;94859.03;;;7.28;100.00
57801;BME280;43627;42.728;23.256;2022-12-07T09:09:34;94799.72;;;6.86;100.00
57801;BME280;43627;42.728;23.256;2022-12-07T09:12:02;94815.16;;;6.99;100.00
57801;BME280;43627;42.728;23.256;2022-12-07T09:14:29;94884.91;;;7.73;100.00
57801;BME280;43627;42.728;23.256;2022-12-07T09:17:08;94872.59;;;7.81;100.00
57801;BME280;43627;42.728;23.256;2022-12-07T09:19:36;94889.94;;;8.24;100.00
57801;BME280;43627;42.728;23.256;2022-12-07T09:22:03;94889.28;;;8.11;100.00
57801;BME280;43627;42.728;23.256;2022-12-07T09:24:31;94790.97;;;7.35;100.00
57801;BME280;43627;42.728;23.256;2022-12-07T09:26:59;94874.91;;;7.61;100.00
57801;BME280;43627;42.728;23.256;2022-12-07T09:29:26;94778.06;;;7.18;100.00
57801;BME280;43627;42.728;23.256;2022-12-07T09:31:55;94839.94;;;7.63;100.00
57801;BME280;43627;42.728;23.256;2022-12-07T09:34:22;94854.50;;;7.25;100.00
57801;BME280;43627;42.728;23.256;2022-12-07T09:36:56;94876.38;;;7.31;100.00
57801;BME280;43627;42.728;23.256;2022-12-07T09:39:27;94766.19;;;6.71;100.00
57801;BME280;43627;42.728;23.256;2022-12-07T09:41:54;94759.09;;;6.65;100.00
57801;BME280;43627;42.728;23.256;2022-12-07T09:44:26;94820.69;;;7.17;100.00
57801;BME280;43627;42.728;23.256;2022-12-07T09:46:54;94818.53;;;7.34;100.00
57801;BME280;43627;42.728;23.256;2022-12-07T09:49:23;94834.75;;;7.25;100.00
57801;BME280;43627;42.728;23.256;2022-12-07T09:52:26;94853.88;;;7.83;100.00
57801;BME280;43627;42.728;23.256;2022-12-07T09:54:57;94809.44;;;7.50;100.00
57801;BME280;43627;42.728;23.256;2022-12-07T09:57:30;94827.56;;;7.62;100.00
57801;BME280;43627;42.728;23.256;2022-12-07T10:00:01;94748.06;;;7.43;100.00
57801;BME280;43627;42.728;23.256;2022-12-07T10:02:38;94856.84;;;8.07;100.00
57801;BME280;43627;42.728;23.256;2022-12-07T10:05:09;94748.63;;;7.78;100.00
57801;BME280;43627;42.728;23.256;2022-12-07T10:07:38;94808.38;;;8.37;100.00
57801;BME280;43627;42.728;23.256;2022-12-07T10:10:14;94747.34;;;8.10;100.00
57801;BME280;43627;42.728;23.256;2022-12-07T10:13:04;94768.38;;;8.46;100.00
57801;BME280;43627;42.728;23.256;2022-12-07T10:15:48;94836.31;;;9.20;100.00
57801;BME280;43627;42.728;23.256;2022-12-07T10:21:09;94721.09;;;8.71;100.00
57801;BME280;43627;42.728;23.256;2022-12-07T10:23:40;94765.63;;;9.01;100.00
57801;BME280;43627;42.728;23.256;2022-12-07T10:28:48;94707.81;;;8.18;100.00
57801;BME280;43627;42.728;23.256;2022-12-07T10:31:18;94706.41;;;7.95;100.00
57801;BME280;43627;42.728;23.256;2022-12-07T10:33:54;94805.66;;;8.55;100.00
57801;BME280;43627;42.728;23.256;2022-12-07T10:36:29;94781.66;;;8.44;100.00
57801;BME280;43627;42.728;23.256;2022-12-07T10:39:11;94720.03;;;8.14;100.00
57801;BME280;43627;42.728;23.256;2022-12-07T10:41:58;94802.78;;;8.77;100.00
57801;BME280;43627;42.728;23.256;2022-12-07T10:44:33;94708.56;;;8.10;100.00
57801;BME280;43627;42.728;23.256;2022-12-07T11:00:39;94698.19;;;8.36;100.00
57801;BME280;43627;42.728;23.256;2022-12-07T11:09:41;94768.38;;;8.65;100.00
57801;BME280;43627;42.728;23.256;2022-12-07T11:17:53;94707.84;;;8.37;100.00
57801;BME280;43627;42.728;23.256;2022-12-07T11:20:52;94692.44;;;8.52;100.00
57801;BME280;43627;42.728;23.256;2022-12-07T11:23:37;94741.63;;;8.81;100.00
57801;BME280;43627;42.728;23.256;2022-12-07T11:36:52;94708.25;;;9.65;100.00
57801;BME280;43627;42.728;23.256;2022-12-07T11:39:33;94651.34;;;9.20;100.00
57801;BME280;43627;42.728;23.256;2022-12-07T11:42:26;94733.53;;;10.14;99.42
57801;BME280;43627;42.728;23.256;2022-12-07T11:45:01;94631.75;;;8.97;100.00
57801;BME280;43627;42.728;23.256;2022-12-07T11:47:47;94737.19;;;9.54;100.00
57801;BME280;43627;42.728;23.256;2022-12-07T11:50:34;94725.09;;;9.12;100.00
57801;BME280;43627;42.728;23.256;2022-12-07T11:55:59;94717.91;;;9.33;100.00
57801;BME280;43627;42.728;23.256;2022-12-07T11:58:44;94699.41;;;9.13;100.00
57801;BME280;43627;42.728;23.256;2022-12-07T12:03:50;94613.22;;;8.44;100.00
57801;BME280;43627;42.728;23.256;2022-12-07T12:06:20;94672.13;;;8.90;100.00
57801;BME280;43627;42.728;23.256;2022-12-07T12:08:55;94589.16;;;8.61;100.00
57801;BME280;43627;42.728;23.256;2022-12-07T12:14:38;94709.53;;;9.79;100.00
57801;BME280;43627;42.728;23.256;2022-12-07T12:20:51;94686.53;;;10.04;99.58
57801;BME280;43627;42.728;23.256;2022-12-07T12:23:24;94649.03;;;9.99;97.10
57801;BME280;43627;42.728;23.256;2022-12-07T12:31:40;94676.31;;;10.38;95.76
57801;BME280;43627;42.728;23.256;2022-12-07T12:34:03;94612.13;;;9.98;95.80
57801;BME280;43627;42.728;23.256;2022-12-07T12:51:49;94549.66;;;10.33;88.47
57801;BME280;43627;42.728;23.256;2022-12-07T12:54:25;94638.84;;;10.92;89.60
57801;BME280;43627;42.728;23.256;2022-12-07T12:57:21;94589.38;;;10.69;87.50
57801;BME280;43627;42.728;23.256;2022-12-07T13:02:28;94607.06;;;10.59;89.46
57801;BME280;43627;42.728;23.256;2022-12-07T13:04:57;94655.84;;;11.01;88.33
57801;BME280;43627;42.728;23.256;2022-12-07T13:08:15;94580.00;;;10.55;88.83
57801;BME280;43627;42.728;23.256;2022-12-07T13:10:47;94558.84;;;10.36;87.85
57801;BME280;43627;42.728;23.256;2022-12-07T13:15:48;94656.81;;;10.83;89.22
57801;BME280;43627;42.728;23.256;2022-12-07T13:26:19;94564.22;;;9.29;100.00
57801;BME280;43627;42.728;23.256;2022-12-07T13:28:49;94552.34;;;9.17;100.00
57801;BME280;43627;42.728;23.256;2022-12-07T13:33:54;94615.09;;;9.85;100.00
57801;BME280;43627;42.728;23.256;2022-12-07T13:36:27;94579.38;;;9.68;100.00
57801;BME280;43627;42.728;23.256;2022-12-07T13:38:56;94638.44;;;10.01;100.00
57801;BME280;43627;42.728;23.256;2022-12-07T13:41:26;94606.44;;;9.72;100.00
57801;BME280;43627;42.728;23.256;2022-12-07T13:44:05;94581.66;;;9.22;100.00
57801;BME280;43627;42.728;23.256;2022-12-07T13:46:47;94552.09;;;9.06;100.00
57801;BME280;43627;42.728;23.256;2022-12-07T13:49:29;94640.72;;;9.55;100.00
57801;BME280;43627;42.728;23.256;2022-12-07T13:57:13;94598.13;;;9.66;100.00
57801;BME280;43627;42.728;23.256;2022-12-07T13:59:40;94643.25;;;10.06;100.00
57801;BME280;43627;42.728;23.256;2022-12-07T14:02:21;94591.13;;;9.74;100.00
57801;BME280;43627;42.728;23.256;2022-12-07T14:05:14;94622.22;;;9.83;100.00
57801;BME280;43627;42.728;23.256;2022-12-07T14:07:57;94641.16;;;10.01;100.00
57801;BME280;43627;42.728;23.256;2022-12-07T14:10:28;94619.66;;;10.03;100.00
57801;BME280;43627;42.728;23.256;2022-12-07T14:12:56;94591.66;;;10.02;100.00
57801;BME280;43627;42.728;23.256;2022-12-07T14:15:31;94642.38;;;10.39;100.00
57801;BME280;43627;42.728;23.256;2022-12-07T14:18:00;94565.16;;;9.50;100.00
57801;BME280;43627;42.728;23.256;2022-12-07T14:20:34;94642.13;;;10.13;100.00
57801;BME280;43627;42.728;23.256;2022-12-07T14:23:03;94553.59;;;9.40;100.00
57801;BME280;43627;42.728;23.256;2022-12-07T14:25:49;94565.09;;;9.35;100.00
57801;BME280;43627;42.728;23.256;2022-12-07T14:28:31;94599.00;;;9.72;100.00
57801;BME280;43627;42.728;23.256;2022-12-07T14:31:00;94555.19;;;9.47;100.00
57801;BME280;43627;42.728;23.256;2022-12-07T14:33:28;94572.19;;;9.56;100.00
57801;BME280;43627;42.728;23.256;2022-12-07T14:35:55;94585.00;;;9.65;100.00
57801;BME280;43627;42.728;23.256;2022-12-07T14:38:25;94574.69;;;9.45;100.00
57801;BME280;43627;42.728;23.256;2022-12-07T14:40:53;94577.00;;;9.37;100.00
57801;BME280;43627;42.728;23.256;2022-12-07T14:43:21;94661.56;;;9.82;100.00
57801;BME280;43627;42.728;23.256;2022-12-07T14:45:48;94534.75;;;9.03;100.00
57801;BME280;43627;42.728;23.256;2022-12-07T14:48:16;94572.50;;;9.10;100.00
57801;BME280;43627;42.728;23.256;2022-12-07T14:51:03;94545.44;;;8.83;100.00
57801;BME280;43627;42.728;23.256;2022-12-07T14:53:51;94601.59;;;8.86;100.00
57801;BME280;43627;42.728;23.256;2022-12-07T14:56:24;94621.78;;;9.03;100.00
57801;BME280;43627;42.728;23.256;2022-12-07T14:58:51;94617.44;;;8.87;100.00
57801;BME280;43627;42.728;23.256;2022-12-07T15:01:18;94652.41;;;9.13;100.00
57801;BME280;43627;42.728;23.256;2022-12-07T15:03:46;94669.97;;;9.03;100.00
57801;BME280;43627;42.728;23.256;2022-12-07T15:06:15;94656.25;;;8.88;100.00
57801;BME280;43627;42.728;23.256;2022-12-07T15:08:42;94553.03;;;8.09;100.00
57801;BME280;43627;42.728;23.256;2022-12-07T15:11:15;94672.53;;;8.37;100.00
57801;BME280;43627;42.728;23.256;2022-12-07T15:13:43;94673.84;;;8.32;100.00
57801;BME280;43627;42.728;23.256;2022-12-07T15:16:29;94667.53;;;8.26;100.00
57801;BME280;43627;42.728;23.256;2022-12-07T15:19:20;94591.50;;;7.80;100.00
57801;BME280;43627;42.728;23.256;2022-12-07T15:21:55;94677.19;;;8.18;100.00
57801;BME280;43627;42.728;23.256;2022-12-07T15:24:22;94630.09;;;7.93;100.00
57801;BME280;43627;42.728;23.256;2022-12-07T15:26:51;94656.38;;;8.06;100.00